Time;durP1;ratioP1;P1;durP2;ratioP2;P2;SDS_P1;SDS_P2;PMS_P1;PMS_P2;Temp;Humidity;BMP_temperature;BMP_pressure;BME280_temperature;BME280_humidity;BME280_pressure;Samples;Min_cycle;Max_cycle;Signal;HPM_P1;HPM_P2
2021/04/13 00:00:33;;;;;;;14.03;12.47;;;;;;;;;;4871408;28;20250;-80
2021/04/13 00:03:06;;;;;;;13.47;11.97;;;;;;;;;;4876715;28;20604;-80
2021/04/13 00:05:37;;;;;;;13.27;11.93;;;;;;;;;;4873434;28;20229;-80
2021/04/13 00:08:24;;;;;;;13.43;11.87;;;;;;;;;;4869870;28;20245;-82
2021/04/13 00:10:55;;;;;;;14.83;12.80;;;;;;;;;;4879437;28;20601;-79
2021/04/13 00:13:24;;;;;;;15.83;14.07;;;;;;;;;;4869023;28;20478;-81
2021/04/13 00:15:55;;;;;;;15.27;13.63;;;;;;;;;;4884784;28;20430;-79
2021/04/13 00:18:25;;;;;;;15.77;13.33;;;;;;;;;;4856811;28;20234;-78
2021/04/13 00:20:55;;;;;;;16.53;14.10;;;;;;;;;;4871370;28;20700;-78
2021/04/13 00:23:23;;;;;;;18.63;15.17;;;;;;;;;;4871722;28;20230;-78
2021/04/13 00:25:52;;;;;;;15.43;12.83;;;;;;;;;;4866796;28;20235;-79
2021/04/13 00:28:21;;;;;;;16.03;14.33;;;;;;;;;;4861053;29;20226;-78
2021/04/13 00:30:54;;;;;;;19.67;15.70;;;;;;;;;;4874886;28;20238;-79
2021/04/13 00:33:24;;;;;;;17.00;14.20;;;;;;;;;;4866559;28;20249;-81
2021/04/13 00:36:08;;;;;;;15.27;13.67;;;;;;;;;;4860210;29;20435;-79
2021/04/13 00:38:38;;;;;;;15.53;13.83;;;;;;;;;;4866549;28;20240;-79
2021/04/13 00:41:12;;;;;;;15.77;13.40;;;;;;;;;;4874010;28;20238;-80
2021/04/13 00:43:43;;;;;;;14.33;12.83;;;;;;;;;;4874036;28;20241;-81
2021/04/13 00:46:13;;;;;;;15.17;13.30;;;;;;;;;;4860666;29;20233;-81
2021/04/13 00:48:43;;;;;;;15.77;14.13;;;;;;;;;;4890012;28;20236;-85
2021/04/13 00:51:22;;;;;;;14.97;13.37;;;;;;;;;;4904577;28;20240;-80
2021/04/13 00:53:51;;;;;;;15.70;13.97;;;;;;;;;;4897731;28;20224;-85
2021/04/13 00:56:20;;;;;;;14.53;13.03;;;;;;;;;;4912359;28;20214;-85
2021/04/13 00:58:55;;;;;;;15.33;13.60;;;;;;;;;;4911318;28;20206;-84
2021/04/13 01:01:27;;;;;;;14.67;12.63;;;;;;;;;;4886019;28;20227;-81
2021/04/13 01:04:01;;;;;;;14.53;13.00;;;;;;;;;;4881053;28;20233;-79
2021/04/13 01:06:30;;;;;;;16.33;14.60;;;;;;;;;;4892197;28;20235;-79
2021/04/13 01:09:07;;;;;;;15.40;13.13;;;;;;;;;;4891210;28;20237;-79
2021/04/13 01:11:40;;;;;;;15.77;14.03;;;;;;;;;;4859915;29;20234;-79
2021/04/13 01:14:10;;;;;;;14.73;13.33;;;;;;;;;;4888266;28;20235;-78
2021/04/13 01:16:41;;;;;;;14.03;12.50;;;;;;;;;;4878300;28;20587;-80
2021/04/13 01:19:18;;;;;;;16.97;14.13;;;;;;;;;;4876730;28;20242;-79
2021/04/13 01:21:54;;;;;;;16.80;13.77;;;;;;;;;;4857466;28;20237;-79
2021/04/13 01:24:27;;;;;;;14.90;12.93;;;;;;;;;;4875036;28;20235;-79
2021/04/13 01:26:55;;;;;;;14.77;13.17;;;;;;;;;;4878045;28;20727;-79
2021/04/13 01:29:27;;;;;;;14.87;13.30;;;;;;;;;;4877430;28;20528;-79
2021/04/13 01:31:58;;;;;;;16.53;14.37;;;;;;;;;;4898641;28;20273;-79
2021/04/13 01:34:32;;;;;;;17.73;14.97;;;;;;;;;;4862233;28;20237;-80
2021/04/13 01:37:10;;;;;;;15.80;14.20;;;;;;;;;;4883955;28;20241;-78
2021/04/13 01:39:46;;;;;;;16.57;14.87;;;;;;;;;;4882493;28;20504;-80
2021/04/13 01:42:14;;;;;;;17.17;15.07;;;;;;;;;;4796038;28;20910;-80
2021/04/13 01:44:46;;;;;;;17.73;15.83;;;;;;;;;;4779645;29;20746;-79
2021/04/13 01:47:16;;;;;;;18.37;15.37;;;;;;;;;;4798157;28;20956;-81
2021/04/13 01:49:48;;;;;;;17.53;15.67;;;;;;;;;;4798481;28;20239;-80
2021/04/13 01:52:22;;;;;;;18.93;16.93;;;;;;;;;;4825042;28;20244;-80
2021/04/13 01:54:50;;;;;;;18.43;15.73;;;;;;;;;;4799471;29;20564;-84
2021/04/13 01:57:23;;;;;;;19.33;15.63;;;;;;;;;;4818449;28;20233;-84
2021/04/13 01:59:53;;;;;;;20.07;17.03;;;;;;;;;;4836909;28;21199;-81
2021/04/13 02:02:27;;;;;;;18.20;15.80;;;;;;;;;;4817455;28;20617;-84
2021/04/13 02:04:57;;;;;;;18.60;16.00;;;;;;;;;;4802089;29;20240;-80
2021/04/13 02:07:40;;;;;;;17.63;15.73;;;;;;;;;;4805619;28;20765;-82
2021/04/13 02:10:14;;;;;;;18.43;16.17;;;;;;;;;;4798255;29;20229;-79
2021/04/13 02:12:44;;;;;;;18.70;16.47;;;;;;;;;;4893560;28;20244;-79
2021/04/13 02:15:23;;;;;;;21.53;17.43;;;;;;;;;;4897626;28;20237;-79
2021/04/13 02:17:56;;;;;;;19.17;16.60;;;;;;;;;;4877210;28;20241;-78
2021/04/13 02:20:28;;;;;;;18.37;16.17;;;;;;;;;;4857658;28;20723;-79
2021/04/13 02:22:56;;;;;;;17.87;15.73;;;;;;;;;;4895509;28;20229;-77
2021/04/13 02:25:27;;;;;;;19.07;15.63;;;;;;;;;;4860162;28;20246;-80
2021/04/13 02:27:56;;;;;;;19.07;15.97;;;;;;;;;;4875733;28;20237;-80
2021/04/13 02:30:30;;;;;;;17.83;15.10;;;;;;;;;;4865273;28;20233;-79
2021/04/13 02:33:00;;;;;;;19.07;14.83;;;;;;;;;;4872882;29;20230;-80
2021/04/13 02:35:30;;;;;;;21.40;17.20;;;;;;;;;;4889914;28;20230;-80
2021/04/13 02:38:00;;;;;;;17.70;15.57;;;;;;;;;;4897416;28;20608;-79
2021/04/13 02:40:32;;;;;;;17.13;14.67;;;;;;;;;;4877724;28;20504;-81
2021/04/13 02:43:09;;;;;;;17.57;15.27;;;;;;;;;;4864509;28;20241;-80
2021/04/13 02:45:40;;;;;;;18.50;15.43;;;;;;;;;;4868719;28;20236;-79
2021/04/13 02:48:12;;;;;;;17.23;14.93;;;;;;;;;;4867650;29;20226;-82
2021/04/13 02:50:43;;;;;;;20.30;16.97;;;;;;;;;;4886794;28;20230;-78
2021/04/13 02:53:12;;;;;;;16.90;15.03;;;;;;;;;;4883359;28;20702;-80
2021/04/13 02:55:41;;;;;;;18.20;16.13;;;;;;;;;;4867956;28;20239;-82
2021/04/13 02:58:10;;;;;;;17.47;15.63;;;;;;;;;;4867873;28;20582;-80
2021/04/13 03:00:42;;;;;;;18.37;16.33;;;;;;;;;;4854853;28;20229;-79
2021/04/13 03:03:13;;;;;;;19.60;15.90;;;;;;;;;;4869298;28;20230;-80
2021/04/13 03:05:41;;;;;;;17.67;15.43;;;;;;;;;;4861617;29;20233;-79
2021/04/13 03:08:11;;;;;;;21.70;15.43;;;;;;;;;;4882006;28;20734;-80
2021/04/13 03:10:41;;;;;;;17.30;14.00;;;;;;;;;;4876422;29;20241;-80
2021/04/13 03:13:11;;;;;;;18.53;16.00;;;;;;;;;;4868119;28;20233;-79
2021/04/13 03:15:41;;;;;;;20.23;16.50;;;;;;;;;;4859287;29;20594;-81
2021/04/13 03:18:15;;;;;;;20.53;16.93;;;;;;;;;;4879864;28;20598;-82
2021/04/13 03:20:44;;;;;;;18.63;16.27;;;;;;;;;;4873327;28;20341;-81
2021/04/13 03:23:13;;;;;;;19.97;15.17;;;;;;;;;;4882988;28;20225;-82
2021/04/13 03:25:42;;;;;;;18.13;14.67;;;;;;;;;;4881849;28;20234;-83
2021/04/13 03:28:12;;;;;;;18.97;15.60;;;;;;;;;;4882444;28;20237;-78
2021/04/13 03:30:41;;;;;;;19.37;16.23;;;;;;;;;;4882484;28;20249;-80
2021/04/13 03:33:14;;;;;;;19.10;16.43;;;;;;;;;;4877867;28;20233;-80
2021/04/13 03:35:42;;;;;;;18.63;16.17;;;;;;;;;;4860626;29;20249;-78
2021/04/13 03:38:13;;;;;;;18.80;16.70;;;;;;;;;;4872820;28;20594;-79
2021/04/13 03:40:45;;;;;;;18.50;16.47;;;;;;;;;;4883080;28;20404;-78
2021/04/13 03:43:14;;;;;;;17.63;15.73;;;;;;;;;;4870520;28;20229;-79
2021/04/13 03:45:43;;;;;;;19.93;17.57;;;;;;;;;;4933368;28;20229;-79
2021/04/13 03:48:18;;;;;;;23.37;18.53;;;;;;;;;;4890942;28;20252;-80
2021/04/13 03:50:47;;;;;;;21.77;18.40;;;;;;;;;;4872727;28;20229;-79
2021/04/13 03:53:16;;;;;;;21.00;16.93;;;;;;;;;;4871021;28;20236;-79
2021/04/13 03:55:57;;;;;;;20.20;17.20;;;;;;;;;;4876908;28;20614;-80
2021/04/13 03:58:26;;;;;;;18.53;16.50;;;;;;;;;;4877228;28;20233;-78
2021/04/13 04:00:53;;;;;;;20.10;17.03;;;;;;;;;;4874996;28;20737;-81
2021/04/13 04:03:22;;;;;;;23.33;19.20;;;;;;;;;;4858201;28;20754;-81
2021/04/13 04:05:52;;;;;;;20.60;16.50;;;;;;;;;;4872112;28;20233;-80
2021/04/13 04:08:30;;;;;;;19.40;15.97;;;;;;;;;;4888934;28;20238;-83
2021/04/13 04:10:58;;;;;;;21.87;16.90;;;;;;;;;;4844253;28;20247;-82
2021/04/13 04:13:29;;;;;;;19.67;17.57;;;;;;;;;;4804377;29;21204;-81
2021/04/13 04:16:06;;;;;;;21.03;17.33;;;;;;;;;;4829916;28;20264;-83
2021/04/13 04:18:38;;;;;;;20.40;16.77;;;;;;;;;;4794803;28;20737;-83
2021/04/13 04:21:29;;;;;;;19.53;17.13;;;;;;;;;;4814421;28;20241;-80
2021/04/13 04:23:58;;;;;;;20.00;17.87;;;;;;;;;;4798167;28;20237;-81
2021/04/13 04:26:28;;;;;;;22.00;18.53;;;;;;;;;;4800411;28;20985;-79
2021/04/13 04:29:11;;;;;;;19.60;17.50;;;;;;;;;;4799247;29;21215;-81
2021/04/13 04:31:40;;;;;;;23.23;19.47;;;;;;;;;;4792653;28;20244;-80
2021/04/13 04:34:54;;;;;;;27.53;21.30;;;;;;;;;;4796667;28;20253;-81
2021/04/13 04:37:26;;;;;;;23.83;20.50;;;;;;;;;;4788056;28;20336;-81
2021/04/13 04:40:19;;;;;;;23.83;19.57;;;;;;;;;;4771683;28;20955;-79
2021/04/13 04:42:54;;;;;;;28.33;21.30;;;;;;;;;;4872346;28;20245;-79
2021/04/13 04:45:38;;;;;;;26.50;20.23;;;;;;;;;;4870285;28;20233;-79
2021/04/13 04:48:29;;;;;;;25.10;20.30;;;;;;;;;;4869346;28;20252;-79
2021/04/13 04:50:59;;;;;;;23.17;19.53;;;;;;;;;;4856930;29;20249;-80
2021/04/13 04:53:29;;;;;;;23.30;18.07;;;;;;;;;;4875772;28;20726;-79
2021/04/13 04:55:58;;;;;;;22.97;17.57;;;;;;;;;;4866072;28;20240;-79
2021/04/13 04:58:26;;;;;;;24.97;18.93;;;;;;;;;;4876567;28;20240;-79
2021/04/13 05:00:54;;;;;;;23.37;18.53;;;;;;;;;;4864263;28;20233;-79
2021/04/13 05:03:23;;;;;;;24.57;18.27;;;;;;;;;;4863507;28;20237;-78
2021/04/13 05:05:52;;;;;;;21.70;18.10;;;;;;;;;;4850012;29;20233;-79
2021/04/13 05:08:19;;;;;;;23.27;18.27;;;;;;;;;;4848431;28;20230;-80
2021/04/13 05:10:49;;;;;;;21.20;16.60;;;;;;;;;;4881524;28;20623;-79
2021/04/13 05:13:17;;;;;;;25.27;17.87;;;;;;;;;;4850772;29;20240;-79
2021/04/13 05:15:45;;;;;;;27.17;18.80;;;;;;;;;;4866746;28;20230;-78
2021/04/13 05:18:13;;;;;;;24.03;18.80;;;;;;;;;;4876306;28;20245;-78
2021/04/13 05:20:40;;;;;;;26.77;19.33;;;;;;;;;;4865392;29;20234;-79
2021/04/13 05:23:08;;;;;;;22.33;18.50;;;;;;;;;;4887542;28;20613;-78
2021/04/13 05:25:36;;;;;;;24.80;19.50;;;;;;;;;;4857403;29;20534;-79
2021/04/13 05:28:06;;;;;;;24.40;18.73;;;;;;;;;;4866735;28;20583;-79
2021/04/13 05:30:33;;;;;;;24.97;18.73;;;;;;;;;;4855676;28;20240;-81
2021/04/13 05:33:01;;;;;;;27.07;20.67;;;;;;;;;;4855935;29;20720;-79
2021/04/13 05:35:29;;;;;;;27.23;21.33;;;;;;;;;;4856530;29;20243;-78
2021/04/13 05:37:57;;;;;;;29.90;22.03;;;;;;;;;;4855990;28;20229;-78
2021/04/13 05:40:27;;;;;;;27.73;20.53;;;;;;;;;;4879360;28;20233;-79
2021/04/13 05:42:55;;;;;;;27.83;19.47;;;;;;;;;;4858883;28;20236;-78
2021/04/13 05:45:26;;;;;;;21.23;18.10;;;;;;;;;;4848693;28;20236;-78
2021/04/13 05:47:54;;;;;;;23.70;17.53;;;;;;;;;;4863915;29;20235;-78
2021/04/13 05:50:24;;;;;;;22.60;17.40;;;;;;;;;;4861270;29;20250;-78
2021/04/13 05:52:51;;;;;;;27.47;18.30;;;;;;;;;;4870645;28;20251;-82
2021/04/13 05:55:19;;;;;;;24.47;18.13;;;;;;;;;;4855733;29;20234;-78
2021/04/13 05:57:48;;;;;;;27.40;19.03;;;;;;;;;;4876010;28;20231;-78
2021/04/13 06:00:17;;;;;;;32.40;19.47;;;;;;;;;;4857820;28;20229;-79
2021/04/13 06:02:46;;;;;;;28.83;19.53;;;;;;;;;;4764837;29;20713;-84
2021/04/13 06:05:14;;;;;;;27.57;19.53;;;;;;;;;;4774618;28;20293;-80
2021/04/13 06:07:45;;;;;;;29.97;20.77;;;;;;;;;;4774036;28;20883;-79
2021/04/13 06:10:14;;;;;;;40.57;23.83;;;;;;;;;;4765297;29;20272;-79
2021/04/13 06:12:42;;;;;;;37.20;23.27;;;;;;;;;;4789862;28;20238;-83
2021/04/13 06:15:13;;;;;;;31.77;21.47;;;;;;;;;;4766117;28;21736;-82
2021/04/13 06:17:40;;;;;;;31.03;21.17;;;;;;;;;;4746480;28;20268;-80
2021/04/13 06:20:10;;;;;;;29.73;21.40;;;;;;;;;;4818181;29;20416;-78
2021/04/13 06:22:38;;;;;;;32.03;21.63;;;;;;;;;;4873977;28;20650;-80
2021/04/13 06:25:07;;;;;;;33.23;23.07;;;;;;;;;;4865919;28;20238;-80
2021/04/13 06:27:35;;;;;;;37.37;23.67;;;;;;;;;;4770493;28;20365;-82
2021/04/13 06:30:04;;;;;;;32.60;23.17;;;;;;;;;;4764074;29;21175;-80
2021/04/13 06:32:34;;;;;;;41.27;24.43;;;;;;;;;;4754028;28;20865;-80
2021/04/13 06:35:02;;;;;;;30.63;23.17;;;;;;;;;;4750485;28;21131;-82
2021/04/13 06:37:30;;;;;;;42.57;25.70;;;;;;;;;;4751295;28;21173;-80
2021/04/13 06:39:58;;;;;;;31.87;22.83;;;;;;;;;;4747613;28;20272;-82
2021/04/13 06:42:45;;;;;;;34.00;22.30;;;;;;;;;;4768703;28;20685;-81
2021/04/13 06:45:19;;;;;;;36.17;24.13;;;;;;;;;;4777498;28;20249;-83
2021/04/13 06:48:09;;;;;;;31.50;23.20;;;;;;;;;;4739317;29;20590;-84
2021/04/13 06:50:44;;;;;;;30.90;22.03;;;;;;;;;;4758330;28;20263;-84
2021/04/13 06:53:23;;;;;;;33.37;24.13;;;;;;;;;;4753050;28;20792;-81
2021/04/13 06:56:05;;;;;;;28.80;22.23;;;;;;;;;;4744875;28;20359;-83
2021/04/13 06:58:45;;;;;;;33.27;22.07;;;;;;;;;;4736821;28;21596;-84
2021/04/13 07:01:18;;;;;;;34.70;22.73;;;;;;;;;;4745242;29;21483;-83
2021/04/13 07:03:54;;;;;;;33.63;24.57;;;;;;;;;;4760855;29;20241;-83
2021/04/13 07:06:39;;;;;;;34.70;23.87;;;;;;;;;;4750433;28;20824;-80
2021/04/13 07:09:14;;;;;;;35.27;23.83;;;;;;;;;;4768228;28;20867;-78
2021/04/13 07:11:47;;;;;;;31.63;22.43;;;;;;;;;;4788493;28;20230;-80
2021/04/13 07:14:20;;;;;;;32.17;21.30;;;;;;;;;;4758316;28;20260;-82
2021/04/13 07:17:06;;;;;;;28.60;17.83;;;;;;;;;;4743727;28;24733;-82
2021/04/13 07:19:36;;;;;;;26.67;16.20;;;;;;;;;;4749501;28;21518;-82
2021/04/13 07:22:08;;;;;;;28.27;17.10;;;;;;;;;;4717681;29;21040;-83
2021/04/13 07:24:40;;;;;;;26.17;17.07;;;;;;;;;;4728499;28;20375;-81
2021/04/13 07:27:12;;;;;;;26.50;16.23;;;;;;;;;;4740139;28;20368;-81
2021/04/13 07:29:44;;;;;;;28.50;17.73;;;;;;;;;;4728981;28;20309;-82
2021/04/13 07:32:14;;;;;;;26.53;17.80;;;;;;;;;;4735099;28;20265;-82
2021/04/13 07:34:44;;;;;;;25.10;16.93;;;;;;;;;;4746954;28;20239;-81
2021/04/13 07:37:16;;;;;;;32.43;17.93;;;;;;;;;;4725318;28;21088;-84
2021/04/13 07:39:48;;;;;;;26.20;17.20;;;;;;;;;;4734892;29;21534;-81
2021/04/13 07:42:20;;;;;;;28.90;18.00;;;;;;;;;;4744796;28;20229;-83
2021/04/13 07:45:14;;;;;;;29.27;17.23;;;;;;;;;;4745303;29;20237;-82
2021/04/13 07:48:22;;;;;;;30.43;19.10;;;;;;;;;;4766561;28;24225;-84
2021/04/13 07:51:01;;;;;;;33.33;18.93;;;;;;;;;;4795868;28;20233;-84
2021/04/13 07:53:35;;;;;;;29.63;18.40;;;;;;;;;;4763005;28;20964;-85
2021/04/13 07:56:09;;;;;;;34.03;20.97;;;;;;;;;;4751429;28;20264;-82
2021/04/13 07:58:42;;;;;;;32.33;19.83;;;;;;;;;;4785193;28;20373;-83
2021/04/13 08:01:10;;;;;;;27.27;18.43;;;;;;;;;;4785145;28;20260;-83
2021/04/13 08:03:38;;;;;;;27.53;19.47;;;;;;;;;;4794817;28;20248;-83
2021/04/13 08:06:39;;;;;;;30.23;20.23;;;;;;;;;;4768561;29;20726;-86
2021/04/13 08:09:19;;;;;;;26.40;17.63;;;;;;;;;;4765647;29;20736;-85
2021/04/13 08:12:19;;;;;;;25.00;16.23;;;;;;;;;;4753854;29;20244;-82
2021/04/13 08:14:48;;;;;;;24.00;16.63;;;;;;;;;;4736656;28;20233;-82
2021/04/13 08:17:20;;;;;;;23.03;16.47;;;;;;;;;;4746367;28;20236;-83
2021/04/13 08:19:59;;;;;;;21.70;15.93;;;;;;;;;;4740205;28;20257;-86
2021/04/13 08:22:29;;;;;;;23.63;17.67;;;;;;;;;;4746347;28;20550;-80
2021/04/13 08:24:58;;;;;;;21.33;15.73;;;;;;;;;;4734338;29;21202;-82
2021/04/13 08:27:45;;;;;;;20.27;15.67;;;;;;;;;;4736594;28;20237;-82
2021/04/13 08:30:40;;;;;;;23.47;15.67;;;;;;;;;;4725550;29;21008;-84
2021/04/13 08:33:20;;;;;;;21.27;15.47;;;;;;;;;;4731998;28;20990;-85
2021/04/13 08:36:05;;;;;;;19.87;15.20;;;;;;;;;;4732175;29;21068;-82
2021/04/13 08:38:51;;;;;;;17.27;13.33;;;;;;;;;;4729658;28;20372;-80
2021/04/13 08:41:25;;;;;;;16.73;12.63;;;;;;;;;;4734595;28;20303;-83
2021/04/13 08:44:00;;;;;;;17.17;12.77;;;;;;;;;;4733722;28;20933;-81
2021/04/13 08:46:35;;;;;;;16.50;12.70;;;;;;;;;;4726620;28;20942;-84
2021/04/13 08:49:06;;;;;;;15.73;12.67;;;;;;;;;;4727695;28;20295;-83
2021/04/13 08:51:41;;;;;;;18.43;13.00;;;;;;;;;;4726849;28;20364;-82
2021/04/13 08:54:33;;;;;;;16.70;13.20;;;;;;;;;;4794186;28;20699;-83
2021/04/13 08:57:07;;;;;;;17.10;12.50;;;;;;;;;;4722288;28;20842;-81
2021/04/13 08:59:42;;;;;;;13.93;11.47;;;;;;;;;;4724972;28;20275;-83
2021/04/13 09:02:15;;;;;;;15.87;12.63;;;;;;;;;;4720212;28;20321;-81
2021/04/13 09:04:43;;;;;;;15.93;12.93;;;;;;;;;;4700909;29;20490;-84
2021/04/13 09:07:15;;;;;;;16.70;14.10;;;;;;;;;;4720161;28;21707;-82
2021/04/13 09:09:46;;;;;;;16.17;14.07;;;;;;;;;;4724134;28;20329;-86
2021/04/13 09:12:31;;;;;;;15.03;12.83;;;;;;;;;;4707148;29;20356;-86
2021/04/13 09:15:08;;;;;;;15.17;12.30;;;;;;;;;;4703641;29;20749;-83
2021/04/13 09:17:45;;;;;;;15.37;12.53;;;;;;;;;;4730606;28;25116;-83
2021/04/13 09:20:18;;;;;;;16.57;12.77;;;;;;;;;;4715228;28;20526;-83
2021/04/13 09:22:49;;;;;;;15.53;13.17;;;;;;;;;;4708869;28;20528;-85
2021/04/13 09:25:33;;;;;;;14.17;11.70;;;;;;;;;;4731915;28;20460;-88
2021/04/13 09:28:05;;;;;;;15.87;13.53;;;;;;;;;;4705605;28;21378;-82
2021/04/13 09:30:36;;;;;;;13.77;12.27;;;;;;;;;;4724806;28;21764;-84
2021/04/13 09:33:08;;;;;;;15.53;13.07;;;;;;;;;;4724847;28;20260;-83
2021/04/13 09:36:11;;;;;;;12.97;11.53;;;;;;;;;;4712681;28;20359;-81
2021/04/13 09:39:03;;;;;;;13.03;10.87;;;;;;;;;;4725657;29;20249;-85
2021/04/13 09:42:05;;;;;;;15.33;11.97;;;;;;;;;;4750940;28;21515;-85
2021/04/13 09:44:42;;;;;;;15.60;13.10;;;;;;;;;;4703819;28;20367;-82
2021/04/13 09:47:18;;;;;;;13.33;11.43;;;;;;;;;;4696203;29;20257;-85
2021/04/13 09:50:01;;;;;;;13.60;11.27;;;;;;;;;;4708918;28;21391;-85
2021/04/13 09:52:51;;;;;;;15.20;11.43;;;;;;;;;;4719954;28;20417;-83
2021/04/13 09:55:30;;;;;;;14.20;10.87;;;;;;;;;;4734603;28;20340;-85
2021/04/13 09:58:24;;;;;;;11.17;10.00;;;;;;;;;;4798203;28;20466;-82
2021/04/13 10:01:10;;;;;;;12.60;10.50;;;;;;;;;;4802685;28;20235;-84
2021/04/13 10:03:58;;;;;;;10.83;8.80;;;;;;;;;;4861597;28;20243;-80
2021/04/13 10:06:30;;;;;;;10.73;9.50;;;;;;;;;;4866879;28;20598;-81
2021/04/13 10:09:05;;;;;;;10.83;8.77;;;;;;;;;;4771419;28;20999;-83
2021/04/13 10:11:54;;;;;;;10.60;9.00;;;;;;;;;;4778054;28;21005;-84
2021/04/13 10:14:49;;;;;;;8.97;8.03;;;;;;;;;;4757567;29;20260;-82
2021/04/13 10:17:32;;;;;;;10.37;8.83;;;;;;;;;;4780782;28;21235;-86
2021/04/13 10:20:15;;;;;;;9.53;7.40;;;;;;;;;;4748054;29;20526;-84
2021/04/13 10:22:53;;;;;;;10.97;8.17;;;;;;;;;;4743429;28;21185;-83
2021/04/13 10:25:49;;;;;;;9.03;7.80;;;;;;;;;;4771454;28;21423;-84
2021/04/13 10:28:27;;;;;;;8.00;7.20;;;;;;;;;;4731642;29;20263;-84
2021/04/13 10:31:38;;;;;;;8.03;6.10;;;;;;;;;;4739019;28;21083;-83
2021/04/13 10:34:51;;;;;;;6.87;5.53;;;;;;;;;;4749948;28;20244;-83
2021/04/13 10:37:52;;;;;;;5.87;5.00;;;;;;;;;;4740039;28;20277;-81
2021/04/13 10:40:34;;;;;;;5.97;5.17;;;;;;;;;;4765203;28;20265;-85
2021/04/13 10:43:32;;;;;;;4.60;4.20;;;;;;;;;;4780206;28;20699;-84
2021/04/13 10:46:25;;;;;;;4.17;3.70;;;;;;;;;;4742945;28;20257;-80
2021/04/13 10:49:54;;;;;;;4.77;3.93;;;;;;;;;;4707868;28;20273;-83
2021/04/13 10:52:57;;;;;;;23.13;16.77;;;;;;;;;;4778772;29;20380;-83
2021/04/13 10:55:35;;;;;;;6.87;6.17;;;;;;;;;;4733014;28;21040;-83
2021/04/13 10:58:52;;;;;;;4.87;4.47;;;;;;;;;;4712252;28;20369;-85
2021/04/13 11:01:59;;;;;;;7.20;5.40;;;;;;;;;;4728130;28;20706;-82
2021/04/13 11:05:09;;;;;;;5.70;5.20;;;;;;;;;;4759571;29;20233;-83
2021/04/13 11:07:58;;;;;;;7.37;6.57;;;;;;;;;;4797637;29;20233;-81
2021/04/13 11:10:50;;;;;;;9.83;6.67;;;;;;;;;;4782556;28;20565;-80
2021/04/13 11:14:12;;;;;;;6.70;6.10;;;;;;;;;;4863033;28;20226;-80
2021/04/13 11:17:16;;;;;;;6.67;5.97;;;;;;;;;;4826213;28;20712;-81
2021/04/13 11:20:01;;;;;;;7.00;5.23;;;;;;;;;;4778707;28;20248;-82
2021/04/13 11:22:43;;;;;;;5.00;4.60;;;;;;;;;;4791865;28;20708;-80
2021/04/13 11:25:50;;;;;;;5.17;4.67;;;;;;;;;;4805536;28;21531;-85
2021/04/13 11:28:46;;;;;;;5.30;4.80;;;;;;;;;;4795539;28;20234;-78
2021/04/13 11:31:38;;;;;;;6.23;4.90;;;;;;;;;;4776065;28;25420;-81
2021/04/13 11:34:36;;;;;;;6.30;5.70;;;;;;;;;;4757016;28;20237;-80
2021/04/13 11:37:23;;;;;;;6.10;5.50;;;;;;;;;;4776317;28;20241;-81
2021/04/13 11:40:08;;;;;;;6.03;5.43;;;;;;;;;;4759755;28;21126;-79
2021/04/13 11:42:39;;;;;;;6.03;5.23;;;;;;;;;;4743698;28;20854;-81
2021/04/13 11:45:32;;;;;;;6.63;5.60;;;;;;;;;;4748284;28;21988;-80
2021/04/13 11:48:03;;;;;;;6.77;5.20;;;;;;;;;;4758532;28;20234;-86
2021/04/13 11:50:33;;;;;;;5.13;4.60;;;;;;;;;;4758228;28;21888;-82
2021/04/13 11:53:03;;;;;;;4.87;4.37;;;;;;;;;;4741287;28;20889;-81
2021/04/13 11:55:44;;;;;;;4.93;4.47;;;;;;;;;;4740697;28;20233;-85
2021/04/13 11:58:17;;;;;;;5.07;4.03;;;;;;;;;;4758848;28;22064;-82
2021/04/13 12:00:45;;;;;;;5.23;4.40;;;;;;;;;;4739128;28;20264;-85
2021/04/13 12:03:32;;;;;;;4.03;3.63;;;;;;;;;;4696507;29;25303;-86
2021/04/13 12:06:03;;;;;;;4.47;3.83;;;;;;;;;;4696927;28;20241;-85
2021/04/13 12:08:42;;;;;;;5.03;4.53;;;;;;;;;;4850583;28;20245;-80
2021/04/13 12:11:11;;;;;;;5.47;4.97;;;;;;;;;;4842807;29;20233;-84
2021/04/13 12:13:45;;;;;;;4.97;3.63;;;;;;;;;;4858852;28;20246;-85
2021/04/13 12:16:16;;;;;;;5.33;3.80;;;;;;;;;;4857700;28;20715;-80
2021/04/13 12:19:09;;;;;;;4.73;4.00;;;;;;;;;;4875831;28;20241;-80
2021/04/13 12:21:57;;;;;;;4.13;3.80;;;;;;;;;;4840617;28;20234;-79
2021/04/13 12:24:49;;;;;;;5.03;4.27;;;;;;;;;;4858095;28;20691;-81
2021/04/13 12:27:43;;;;;;;5.33;4.00;;;;;;;;;;4853202;29;20233;-79
2021/04/13 12:30:56;;;;;;;4.87;4.47;;;;;;;;;;4849181;28;20229;-80
2021/04/13 12:33:59;;;;;;;4.00;3.70;;;;;;;;;;4871032;28;20233;-83
2021/04/13 12:36:54;;;;;;;4.13;3.60;;;;;;;;;;4894045;28;20654;-85
2021/04/13 12:39:55;;;;;;;4.67;4.00;;;;;;;;;;4892199;28;20661;-82
2021/04/13 12:42:29;;;;;;;4.17;3.77;;;;;;;;;;4876381;28;20224;-79
2021/04/13 12:45:34;;;;;;;4.70;4.30;;;;;;;;;;4853584;28;20230;-79
2021/04/13 12:48:28;;;;;;;5.10;4.70;;;;;;;;;;4855368;28;20248;-81
2021/04/13 12:51:20;;;;;;;4.70;4.20;;;;;;;;;;4868270;28;20244;-82
2021/04/13 12:53:48;;;;;;;5.33;4.90;;;;;;;;;;4862751;28;20238;-82
2021/04/13 12:56:28;;;;;;;5.60;3.80;;;;;;;;;;4854943;28;20233;-79
2021/04/13 12:59:10;;;;;;;5.30;4.77;;;;;;;;;;4862445;28;20226;-77
2021/04/13 13:01:41;;;;;;;5.10;4.60;;;;;;;;;;4854833;28;20238;-78
2021/04/13 13:04:13;;;;;;;4.27;3.87;;;;;;;;;;4852032;28;20225;-78
2021/04/13 13:06:42;;;;;;;5.13;4.68;;;;;;;;;;4850939;28;20590;-77
2021/04/13 13:09:20;;;;;;;4.57;4.28;;;;;;;;;;4865472;28;20241;-78
2021/04/13 13:11:57;;;;;;;5.05;4.53;;;;;;;;;;4874808;28;20233;-77
2021/04/13 13:14:25;;;;;;;5.45;4.95;;;;;;;;;;4856666;28;20225;-80
2021/04/13 13:16:55;;;;;;;5.47;4.97;;;;;;;;;;4862008;28;20231;-78
2021/04/13 13:19:30;;;;;;;5.30;4.90;;;;;;;;;;4861100;28;20234;-79
2021/04/13 13:21:59;;;;;;;4.90;4.43;;;;;;;;;;4855642;28;20596;-78
2021/04/13 13:24:31;;;;;;;5.20;4.80;;;;;;;;;;4846719;29;20236;-78
2021/04/13 13:27:12;;;;;;;5.60;5.10;;;;;;;;;;4856950;28;20642;-78
2021/04/13 13:29:40;;;;;;;5.78;5.28;;;;;;;;;;4859969;28;20245;-78
2021/04/13 13:32:11;;;;;;;6.20;5.57;;;;;;;;;;4838205;28;20217;-81
2021/04/13 13:34:39;;;;;;;5.83;5.33;;;;;;;;;;4864938;28;20234;-83
2021/04/13 13:37:08;;;;;;;6.00;5.50;;;;;;;;;;4859843;28;20237;-80
2021/04/13 13:39:36;;;;;;;5.33;4.90;;;;;;;;;;4919915;28;20246;-81
2021/04/13 13:42:08;;;;;;;5.10;4.70;;;;;;;;;;4852594;28;20238;-83
2021/04/13 13:44:40;;;;;;;4.90;4.37;;;;;;;;;;4862174;28;20233;-80
2021/04/13 13:47:19;;;;;;;4.83;4.43;;;;;;;;;;4870549;28;20222;-80
2021/04/13 13:49:49;;;;;;;4.97;4.57;;;;;;;;;;4856376;28;20237;-80
2021/04/13 13:52:36;;;;;;;5.73;5.13;;;;;;;;;;4874674;28;20731;-79
2021/04/13 13:55:20;;;;;;;5.40;5.00;;;;;;;;;;4857851;29;20237;-79
2021/04/13 13:58:05;;;;;;;5.13;4.63;;;;;;;;;;4853679;28;20607;-81
2021/04/13 14:00:46;;;;;;;4.50;4.10;;;;;;;;;;4881335;28;20444;-78
2021/04/13 14:03:17;;;;;;;5.00;4.60;;;;;;;;;;4846186;29;20244;-78
2021/04/13 14:05:49;;;;;;;4.37;4.00;;;;;;;;;;4875617;28;20625;-79
2021/04/13 14:08:23;;;;;;;4.40;4.00;;;;;;;;;;4863724;28;20226;-79
2021/04/13 14:10:53;;;;;;;3.37;3.10;;;;;;;;;;4877965;28;20237;-79
2021/04/13 14:13:33;;;;;;;4.10;3.67;;;;;;;;;;4859420;28;20629;-78
2021/04/13 14:16:25;;;;;;;4.80;4.20;;;;;;;;;;4858653;28;20226;-78
2021/04/13 14:19:00;;;;;;;4.57;3.87;;;;;;;;;;4854930;28;20233;-79
2021/04/13 14:21:36;;;;;;;3.60;3.30;;;;;;;;;;4860435;28;20227;-79
2021/04/13 14:24:11;;;;;;;3.87;3.57;;;;;;;;;;4863137;28;20233;-82
2021/04/13 14:26:41;;;;;;;3.50;3.20;;;;;;;;;;4854256;29;20225;-80
2021/04/13 14:29:16;;;;;;;4.10;3.63;;;;;;;;;;4862375;28;20241;-82
2021/04/13 14:31:45;;;;;;;2.83;2.63;;;;;;;;;;4867796;29;20240;-81
2021/04/13 14:34:16;;;;;;;3.20;2.93;;;;;;;;;;4870486;28;20599;-81
2021/04/13 14:36:45;;;;;;;3.07;2.77;;;;;;;;;;4849977;29;20403;-81
2021/04/13 14:39:14;;;;;;;2.97;2.70;;;;;;;;;;4869382;28;20237;-80
2021/04/13 14:41:42;;;;;;;3.30;3.00;;;;;;;;;;4884925;28;20225;-81
2021/04/13 14:44:11;;;;;;;3.03;2.73;;;;;;;;;;4910227;28;20226;-84
2021/04/13 14:46:39;;;;;;;3.83;3.20;;;;;;;;;;4899212;28;20256;-82
2021/04/13 14:49:08;;;;;;;3.57;3.17;;;;;;;;;;4885832;28;20216;-82
2021/04/13 14:51:37;;;;;;;3.53;3.23;;;;;;;;;;4896184;28;20222;-85
2021/04/13 14:54:06;;;;;;;3.53;3.23;;;;;;;;;;4887020;28;20238;-78
2021/04/13 14:56:39;;;;;;;3.80;3.50;;;;;;;;;;4846162;29;20233;-81
2021/04/13 14:59:08;;;;;;;3.60;3.30;;;;;;;;;;4861169;28;20245;-79
2021/04/13 15:01:35;;;;;;;3.63;3.33;;;;;;;;;;4845037;29;20234;-79
2021/04/13 15:04:04;;;;;;;3.47;2.60;;;;;;;;;;4864707;28;20240;-78
2021/04/13 15:06:32;;;;;;;3.10;2.90;;;;;;;;;;4873733;28;20309;-79
2021/04/13 15:09:00;;;;;;;3.10;2.80;;;;;;;;;;4858727;28;20238;-78
2021/04/13 15:11:28;;;;;;;3.37;3.07;;;;;;;;;;4876138;28;20234;-80
2021/04/13 15:13:56;;;;;;;3.13;2.90;;;;;;;;;;4883859;28;20241;-80
2021/04/13 15:16:23;;;;;;;3.80;3.40;;;;;;;;;;4866982;29;20743;-78
2021/04/13 15:18:52;;;;;;;3.47;2.90;;;;;;;;;;4885716;28;20230;-80